createdAt,value
2018-09-27T00:01:30.578Z,83.20
2018-09-27T00:03:59.018Z,83.20
2018-09-27T00:06:27.501Z,83.00
2018-09-27T00:08:56.034Z,83.20
2018-09-27T00:11:24.655Z,83.30
2018-09-27T00:13:53.196Z,83.20
2018-09-27T00:16:21.953Z,83.10
2018-09-27T00:18:50.584Z,83.40
2018-09-27T00:21:19.157Z,83.40
2018-09-27T00:23:47.685Z,83.20
2018-09-27T00:26:16.265Z,83.10
2018-09-27T00:28:44.877Z,83.40
2018-09-27T00:31:13.461Z,83.20
2018-09-27T00:33:42.053Z,83.00
2018-09-27T00:36:10.675Z,83.40
2018-09-27T00:38:39.358Z,83.40
2018-09-27T00:41:08.099Z,83.40
2018-09-27T00:43:36.685Z,83.40
2018-09-27T00:46:05.310Z,83.50
2018-09-27T00:48:34.013Z,83.30
2018-09-27T00:51:02.509Z,83.30
2018-09-27T00:53:31.026Z,83.30
2018-09-27T00:55:59.493Z,83.30
2018-09-27T00:58:27.984Z,83.20
2018-09-27T01:00:56.456Z,83.20
2018-09-27T01:03:26.437Z,83.10
2018-09-27T01:05:55.045Z,83.10
2018-09-27T01:08:23.482Z,83.10
2018-09-27T01:10:51.977Z,83.10
2018-09-27T01:13:20.593Z,83.30
2018-09-27T01:15:49.300Z,83.20
2018-09-27T01:18:17.774Z,83.40
2018-09-27T01:20:46.265Z,83.30
2018-09-27T01:23:14.734Z,83.30
2018-09-27T01:25:43.184Z,83.40
2018-09-27T01:28:11.974Z,83.60
2018-09-27T01:30:40.406Z,83.70
2018-09-27T01:33:08.930Z,83.90
2018-09-27T01:35:37.709Z,84.10
2018-09-27T01:38:06.249Z,84.10
2018-09-27T01:40:34.701Z,84.30
2018-09-27T01:43:03.208Z,84.20
2018-09-27T01:45:31.747Z,84.20
2018-09-27T01:48:00.219Z,84.40
2018-09-27T01:50:28.666Z,84.40
2018-09-27T01:52:57.285Z,84.20
2018-09-27T01:55:25.864Z,84.40
2018-09-27T01:57:54.491Z,84.40
2018-09-27T02:00:23.070Z,84.40
2018-09-27T02:02:51.597Z,84.40
2018-09-27T02:05:20.074Z,84.30
2018-09-27T02:07:48.552Z,84.40
2018-09-27T02:10:17.190Z,84.40
2018-09-27T02:12:45.928Z,84.30
2018-09-27T02:15:14.672Z,84.30
2018-09-27T02:17:43.108Z,84.50
2018-09-27T02:20:11.875Z,84.40
2018-09-27T02:22:40.470Z,84.40
2018-09-27T02:25:09.174Z,85.20
2018-09-27T02:27:37.720Z,84.70
2018-09-27T02:30:06.582Z,84.80
2018-09-27T02:32:35.465Z,84.70
2018-09-27T02:35:04.041Z,84.70
2018-09-27T02:37:32.556Z,84.70
2018-09-27T02:40:01.189Z,84.80
2018-09-27T02:42:29.760Z,85.00
2018-09-27T02:44:58.271Z,85.10
2018-09-27T02:47:26.727Z,85.20
2018-09-27T02:49:55.156Z,85.30
2018-09-27T02:52:23.578Z,85.80
2018-09-27T02:54:52.090Z,85.30
2018-09-27T02:57:20.570Z,85.20
2018-09-27T02:59:49.098Z,85.40
2018-09-27T03:02:17.519Z,85.30
2018-09-27T03:04:46.024Z,85.30
2018-09-27T03:07:14.473Z,85.40
2018-09-27T03:09:42.929Z,85.50
2018-09-27T03:12:11.487Z,85.70
2018-09-27T03:14:39.899Z,85.60
2018-09-27T03:17:08.409Z,85.70
2018-09-27T03:19:36.862Z,85.90
2018-09-27T03:22:05.360Z,86.00
2018-09-27T03:24:33.876Z,86.00
2018-09-27T03:27:02.405Z,86.50
2018-09-27T03:29:30.868Z,86.10
2018-09-27T03:31:59.325Z,86.20
2018-09-27T03:34:27.838Z,86.40
2018-09-27T03:36:56.376Z,87.10
2018-09-27T03:39:24.922Z,86.70
2018-09-27T03:41:53.453Z,86.60
2018-09-27T03:44:21.962Z,86.60
2018-09-27T03:46:50.499Z,86.50
2018-09-27T03:49:18.994Z,86.70
2018-09-27T03:51:47.577Z,86.90
2018-09-27T03:54:16.152Z,87.10
2018-09-27T03:56:44.875Z,87.20
2018-09-27T03:59:13.366Z,87.50
2018-09-27T04:01:41.880Z,87.60
2018-09-27T04:04:10.367Z,87.60
2018-09-27T04:06:39.191Z,87.80
2018-09-27T04:09:08.536Z,87.70
2018-09-27T04:11:37.118Z,87.90
2018-09-27T04:14:05.561Z,87.80
2018-09-27T04:16:34.046Z,87.90
2018-09-27T04:19:03.540Z,87.90
2018-09-27T04:21:32.734Z,88.10
2018-09-27T04:24:01.249Z,88.20
2018-09-27T04:26:29.704Z,88.20
2018-09-27T04:28:59.136Z,88.30
2018-09-27T04:31:27.667Z,88.40
2018-09-27T04:33:56.193Z,88.50
2018-09-27T04:36:24.517Z,88.60
2018-09-27T04:38:52.914Z,88.70
2018-09-27T04:41:21.263Z,88.90
2018-09-27T04:43:49.704Z,89.10
2018-09-27T04:46:18.252Z,89.20
2018-09-27T04:48:46.694Z,89.90
2018-09-27T04:51:15.173Z,89.30
2018-09-27T04:53:43.628Z,89.30
2018-09-27T04:56:12.110Z,89.30
2018-09-27T04:58:40.614Z,89.40
2018-09-27T05:01:09.078Z,89.40
2018-09-27T05:03:37.479Z,89.20
2018-09-27T05:06:05.873Z,89.40
2018-09-27T05:08:34.629Z,89.60
2018-09-27T05:11:03.130Z,89.80
2018-09-27T05:13:31.582Z,89.90
2018-09-27T05:16:00.204Z,89.90
2018-09-27T05:18:28.616Z,90.00
2018-09-27T05:20:57.096Z,90.00
2018-09-27T05:23:25.516Z,90.00
2018-09-27T05:25:54.129Z,90.10
2018-09-27T05:28:24.844Z,90.10
2018-09-27T05:30:53.337Z,90.20
2018-09-27T05:33:21.729Z,90.30
2018-09-27T05:35:50.311Z,90.20
2018-09-27T05:38:18.751Z,90.30
2018-09-27T05:40:47.598Z,90.30
2018-09-27T05:43:16.212Z,90.30
2018-09-27T05:45:44.729Z,90.40
2018-09-27T05:48:13.638Z,90.30
2018-09-27T05:50:42.356Z,90.40
2018-09-27T05:53:10.785Z,90.30
2018-09-27T05:55:39.246Z,90.30
2018-09-27T05:58:07.774Z,90.30
2018-09-27T06:00:36.210Z,90.40
2018-09-27T06:03:06.462Z,90.40
2018-09-27T06:05:35.473Z,90.40
2018-09-27T06:08:04.046Z,90.50
2018-09-27T06:10:32.445Z,90.50
2018-09-27T06:13:00.841Z,90.40
2018-09-27T06:15:29.562Z,90.50
2018-09-27T06:17:58.039Z,90.40
2018-09-27T06:20:26.781Z,90.30
2018-09-27T06:22:55.192Z,90.30
2018-09-27T06:25:23.698Z,90.10
2018-09-27T06:27:52.262Z,90.20
2018-09-27T06:30:20.760Z,90.20
2018-09-27T06:32:49.301Z,90.10
2018-09-27T06:35:17.667Z,90.00
2018-09-27T06:37:46.088Z,90.10
2018-09-27T06:40:15.088Z,90.10
2018-09-27T06:42:43.644Z,90.10
2018-09-27T06:45:12.097Z,90.10
2018-09-27T06:47:40.577Z,90.10
2018-09-27T06:50:09.110Z,90.20
2018-09-27T06:52:37.673Z,90.00
2018-09-27T06:55:06.401Z,90.00
2018-09-27T06:57:34.904Z,90.00
2018-09-27T07:00:03.441Z,89.80
2018-09-27T07:02:32.138Z,90.10
2018-09-27T07:05:00.660Z,90.00
2018-09-27T07:07:29.476Z,89.80
2018-09-27T07:09:57.966Z,89.80
2018-09-27T07:12:26.643Z,90.00
2018-09-27T07:14:55.813Z,90.20
2018-09-27T07:17:24.305Z,90.00
2018-09-27T07:19:52.746Z,89.60
2018-09-27T07:22:21.262Z,89.10
2018-09-27T07:24:49.772Z,90.00
2018-09-27T07:27:18.252Z,90.00
2018-09-27T07:29:46.697Z,90.20
2018-09-27T07:32:15.114Z,90.10
2018-09-27T07:34:43.646Z,90.20
2018-09-27T07:37:12.157Z,90.30
2018-09-27T07:39:40.607Z,90.30
2018-09-27T07:42:09.105Z,90.50
2018-09-27T07:44:37.715Z,90.40
2018-09-27T07:47:06.184Z,90.20
2018-09-27T07:49:34.662Z,90.30
2018-09-27T07:52:03.217Z,90.60
2018-09-27T07:54:31.873Z,90.50
2018-09-27T07:57:00.289Z,90.60
2018-09-27T07:59:28.725Z,90.70
2018-09-27T08:01:57.261Z,91.00
2018-09-27T08:04:25.768Z,91.10
2018-09-27T08:06:54.261Z,90.50
2018-09-27T08:09:22.782Z,90.90
2018-09-27T08:11:51.384Z,90.80
2018-09-27T08:14:19.847Z,90.70
2018-09-27T08:16:48.320Z,90.70
2018-09-27T08:19:16.641Z,90.80
2018-09-27T08:21:45.075Z,91.00
2018-09-27T08:24:13.673Z,90.90
2018-09-27T08:26:42.272Z,90.70
2018-09-27T08:29:10.707Z,91.10
2018-09-27T08:31:39.166Z,90.20
2018-09-27T08:34:07.706Z,90.90
2018-09-27T08:36:36.300Z,90.60
2018-09-27T08:39:07.477Z,90.40
2018-09-27T08:41:36.066Z,90.40
2018-09-27T08:44:04.632Z,90.50
2018-09-27T08:46:33.085Z,90.90
2018-09-27T08:49:02.313Z,90.50
2018-09-27T08:51:30.862Z,90.00
2018-09-27T08:53:59.437Z,90.10
2018-09-27T08:56:27.950Z,90.30
2018-09-27T08:58:56.465Z,90.40
2018-09-27T09:01:25.018Z,90.20
2018-09-27T09:03:53.462Z,90.50
2018-09-27T09:06:21.937Z,90.60
2018-09-27T09:08:50.413Z,90.70
2018-09-27T09:11:18.923Z,90.20
2018-09-27T09:13:47.483Z,90.30
2018-09-27T09:16:16.367Z,90.40
2018-09-27T09:18:45.630Z,89.90
2018-09-27T09:21:14.201Z,89.20
2018-09-27T09:23:42.845Z,89.40
2018-09-27T09:26:11.520Z,88.80
2018-09-27T09:28:40.217Z,89.50
2018-09-27T09:31:08.789Z,88.40
2018-09-27T09:33:37.374Z,87.40
2018-09-27T09:36:05.984Z,87.20
2018-09-27T09:38:34.513Z,87.30
2018-09-27T09:41:03.241Z,87.30
2018-09-27T09:43:31.818Z,86.80
2018-09-27T09:46:00.331Z,86.50
2018-09-27T09:48:28.814Z,86.50
2018-09-27T09:50:57.288Z,86.30
2018-09-27T09:53:25.795Z,86.70
2018-09-27T09:55:54.433Z,85.80
2018-09-27T09:58:23.136Z,84.70
2018-09-27T10:00:51.802Z,84.20
2018-09-27T10:03:20.355Z,81.90
2018-09-27T10:05:48.941Z,81.50
2018-09-27T10:08:17.621Z,81.90
2018-09-27T10:10:46.318Z,80.80
2018-09-27T10:13:14.904Z,81.10
2018-09-27T10:15:43.393Z,81.20
2018-09-27T10:18:12.093Z,80.50
2018-09-27T10:20:40.744Z,79.90
2018-09-27T10:23:09.647Z,78.70
2018-09-27T10:25:38.281Z,78.80
2018-09-27T10:28:06.801Z,79.60
2018-09-27T10:30:35.534Z,78.60
2018-09-27T10:33:04.170Z,77.70
2018-09-27T10:35:32.967Z,77.20
2018-09-27T10:38:01.540Z,76.70
2018-09-27T10:40:30.385Z,76.70
2018-09-27T10:42:59.464Z,75.60
2018-09-27T10:45:27.961Z,74.60
2018-09-27T10:47:56.490Z,74.30
2018-09-27T10:50:25.030Z,74.00
2018-09-27T10:52:53.658Z,74.50
2018-09-27T10:55:22.200Z,73.20
2018-09-27T10:57:50.746Z,73.20
2018-09-27T11:00:22.353Z,73.60
2018-09-27T11:02:51.482Z,74.00
2018-09-27T11:05:20.001Z,72.70
2018-09-27T11:07:48.545Z,72.10
2018-09-27T11:10:17.087Z,71.50
2018-09-27T11:12:45.655Z,71.40
2018-09-27T11:15:14.113Z,71.30
2018-09-27T11:17:44.009Z,71.10
2018-09-27T11:20:12.692Z,70.60
2018-09-27T11:22:41.407Z,70.00
2018-09-27T11:25:10.865Z,69.80
2018-09-27T11:27:39.449Z,69.70
2018-09-27T11:30:13.480Z,69.50
2018-09-27T11:35:34.969Z,69.30
2018-09-27T11:38:20.065Z,69.70
2018-09-27T11:40:51.889Z,69.30
2018-09-27T11:43:22.997Z,68.50
2018-09-27T11:57:18.839Z,67.40
2018-09-27T11:59:47.686Z,67.40
2018-09-27T12:02:16.776Z,66.60
2018-09-27T12:04:46.547Z,66.80
2018-09-27T12:07:15.172Z,66.30
2018-09-27T12:09:43.845Z,66.20
2018-09-27T12:12:14.249Z,66.40
2018-09-27T12:14:43.963Z,65.70
2018-09-27T12:17:13.941Z,65.60
2018-09-27T12:19:43.853Z,65.50
2018-09-27T12:22:16.044Z,65.20
2018-09-27T12:24:45.156Z,64.90
2018-09-27T12:27:15.016Z,64.80
2018-09-27T12:29:44.028Z,64.70
2018-09-27T12:32:13.669Z,63.90
2018-09-27T12:34:42.284Z,63.60
2018-09-27T12:37:11.094Z,63.90
2018-09-27T12:39:39.756Z,63.70
2018-09-27T12:42:08.544Z,63.80
2018-09-27T12:44:38.302Z,63.60
2018-09-27T12:47:06.947Z,64.20
2018-09-27T12:49:35.618Z,64.50
2018-09-27T12:52:05.299Z,64.60
2018-09-27T12:54:33.737Z,64.20
2018-09-27T12:57:02.332Z,64.30
2018-09-27T12:59:31.792Z,64.60
2018-09-27T13:02:00.709Z,64.00
2018-09-27T13:04:29.091Z,63.40
2018-09-27T13:06:58.225Z,64.10
2018-09-27T13:09:27.096Z,63.30
2018-09-27T13:11:55.531Z,63.50
2018-09-27T13:14:24.383Z,63.20
2018-09-27T13:16:53.019Z,62.40
2018-09-27T13:19:22.620Z,62.50
2018-09-27T13:21:51.247Z,62.20
2018-09-27T13:24:20.008Z,61.80
2018-09-27T13:26:48.734Z,62.50
2018-09-27T13:29:17.832Z,62.20
2018-09-27T13:31:46.584Z,62.20
2018-09-27T13:34:16.480Z,62.50
2018-09-27T13:36:45.195Z,61.90
2018-09-27T13:39:13.951Z,61.90
2018-09-27T13:41:42.541Z,62.50
2018-09-27T13:44:11.222Z,62.60
2018-09-27T13:46:39.807Z,62.20
2018-09-27T13:49:08.524Z,61.20
2018-09-27T13:51:37.066Z,62.00
2018-09-27T13:54:05.706Z,61.90
2018-09-27T13:56:34.305Z,61.70
2018-09-27T13:59:02.898Z,62.70
2018-09-27T14:01:31.376Z,62.50
2018-09-27T14:04:00.077Z,63.00
2018-09-27T14:06:28.644Z,62.30
2018-09-27T14:08:59.921Z,62.60
2018-09-27T14:11:29.377Z,62.70
2018-09-27T14:13:58.001Z,62.50
2018-09-27T14:16:26.595Z,63.30
2018-09-27T14:18:55.952Z,62.70
2018-09-27T14:21:24.697Z,62.20
2018-09-27T14:23:53.552Z,62.80
2018-09-27T14:26:22.150Z,63.00
2018-09-27T14:28:50.637Z,63.30
2018-09-27T14:31:19.163Z,62.80
2018-09-27T14:33:47.801Z,62.80
2018-09-27T14:36:16.621Z,62.80
2018-09-27T14:38:45.334Z,62.50
2018-09-27T14:41:15.212Z,62.60
2018-09-27T14:43:44.714Z,63.10
2018-09-27T14:46:13.263Z,63.90
2018-09-27T14:48:43.346Z,64.00
2018-09-27T14:51:12.333Z,63.70
2018-09-27T14:53:41.522Z,64.30
2018-09-27T14:56:11.483Z,64.90
2018-09-27T14:58:40.174Z,64.20
2018-09-27T15:01:08.654Z,64.70
2018-09-27T15:03:37.111Z,65.10
2018-09-27T15:06:05.683Z,64.50
2018-09-27T15:08:34.444Z,64.20
2018-09-27T15:11:03.699Z,64.40
2018-09-27T15:13:33.039Z,64.10
2018-09-27T15:16:01.646Z,64.30
2018-09-27T15:18:30.141Z,63.90
2018-09-27T15:20:58.894Z,64.40
2018-09-27T15:23:28.819Z,64.00
2018-09-27T15:25:57.930Z,64.30
2018-09-27T15:28:26.513Z,64.50
2018-09-27T15:30:55.097Z,64.30
2018-09-27T15:33:23.551Z,64.10
2018-09-27T15:35:52.232Z,64.60
2018-09-27T15:38:21.622Z,64.40
2018-09-27T15:40:52.339Z,64.70
2018-09-27T15:43:20.997Z,64.30
2018-09-27T15:45:49.558Z,63.70
2018-09-27T15:48:18.238Z,63.60
2018-09-27T15:50:48.567Z,63.20
2018-09-27T15:53:17.229Z,62.80
2018-09-27T15:55:46.025Z,63.00
2018-09-27T15:58:14.679Z,62.70
2018-09-27T16:00:45.800Z,63.00
2018-09-27T16:03:15.797Z,62.50
2018-09-27T16:05:44.596Z,63.10
2018-09-27T16:08:13.579Z,62.80
2018-09-27T16:10:42.169Z,62.20
2018-09-27T16:13:10.802Z,61.80
2018-09-27T16:15:39.432Z,62.20
2018-09-27T16:18:08.166Z,62.60
2018-09-27T16:20:37.258Z,62.60
2018-09-27T16:23:07.027Z,63.00
2018-09-27T16:25:35.567Z,62.40
2018-09-27T16:28:04.186Z,62.80
2018-09-27T16:30:34.351Z,63.10
2018-09-27T16:33:02.833Z,64.10
2018-09-27T16:35:31.336Z,63.40
2018-09-27T16:37:59.795Z,62.60
2018-09-27T16:40:29.039Z,62.70
2018-09-27T16:42:58.126Z,62.00
2018-09-27T16:45:26.704Z,62.20
2018-09-27T16:47:55.227Z,62.40
2018-09-27T16:50:23.938Z,62.60
2018-09-27T16:52:54.007Z,61.90
2018-09-27T16:55:22.850Z,61.80
2018-09-27T16:57:52.878Z,61.40
2018-09-27T17:00:22.506Z,61.30
2018-09-27T17:02:51.050Z,60.80
2018-09-27T17:05:21.215Z,61.40
2018-09-27T17:07:51.571Z,60.80
2018-09-27T17:10:20.693Z,61.40
2018-09-27T17:12:49.589Z,60.80
2018-09-27T17:15:18.666Z,62.40
2018-09-27T17:17:48.750Z,61.50
2018-09-27T17:20:18.298Z,60.60
2018-09-27T17:22:46.958Z,61.30
2018-09-27T17:25:15.730Z,60.20
2018-09-27T17:27:44.457Z,60.40
2018-09-27T17:30:13.069Z,60.20
2018-09-27T17:32:41.672Z,60.10
2018-09-27T17:35:10.445Z,61.00
2018-09-27T17:37:39.112Z,60.60
2018-09-27T17:40:07.962Z,59.50
2018-09-27T17:42:36.945Z,60.20
2018-09-27T17:45:05.627Z,60.50
2018-09-27T17:47:34.262Z,60.90
2018-09-27T17:50:02.973Z,61.00
2018-09-27T17:52:31.748Z,60.10
2018-09-27T17:55:00.413Z,60.00
2018-09-27T17:57:29.202Z,60.10
2018-09-27T17:59:58.090Z,61.50
2018-09-27T18:03:01.450Z,60.70
2018-09-27T18:05:31.065Z,60.70
2018-09-27T18:08:22.251Z,60.70
2018-09-27T18:11:03.729Z,60.60
2018-09-27T18:13:56.606Z,61.10
2018-09-27T18:16:31.025Z,62.00
2018-09-27T18:19:00.850Z,62.00
2018-09-27T18:21:29.724Z,61.20
2018-09-27T18:24:28.036Z,62.80
2018-09-27T18:26:56.796Z,61.50
2018-09-27T18:29:25.384Z,62.30
2018-09-27T18:31:54.281Z,61.60
2018-09-27T18:34:22.891Z,62.00
2018-09-27T18:36:51.414Z,62.00
2018-09-27T18:39:19.978Z,62.30
2018-09-27T18:41:48.489Z,62.70
2018-09-27T18:44:16.996Z,62.60
2018-09-27T18:46:45.598Z,62.50
2018-09-27T18:49:14.270Z,62.20
2018-09-27T18:51:42.758Z,62.20
2018-09-27T18:54:11.385Z,62.70
2018-09-27T18:56:43.220Z,62.40
2018-09-27T18:59:12.022Z,62.70
2018-09-27T19:01:40.929Z,63.10
2018-09-27T19:04:09.781Z,63.00
2018-09-27T19:06:38.411Z,63.00
2018-09-27T19:09:07.194Z,63.50
2018-09-27T19:11:35.746Z,63.60
2018-09-27T19:14:04.332Z,63.70
2018-09-27T19:16:32.924Z,64.10
2018-09-27T19:19:01.541Z,63.90
2018-09-27T19:21:30.379Z,64.50
2018-09-27T19:23:58.938Z,64.60
2018-09-27T19:26:27.505Z,64.50
2018-09-27T19:28:56.091Z,64.60
2018-09-27T19:31:24.595Z,64.80
2018-09-27T19:33:53.494Z,65.20
2018-09-27T19:36:25.591Z,65.00
2018-09-27T19:38:54.446Z,65.20
2018-09-27T19:41:25.553Z,65.60
2018-09-27T19:43:54.724Z,65.80
2018-09-27T19:46:23.447Z,66.10
2018-09-27T19:48:52.745Z,66.30
2018-09-27T19:51:21.736Z,66.50
2018-09-27T19:53:51.027Z,66.70
2018-09-27T19:56:22.756Z,66.80
2018-09-27T19:58:51.631Z,67.30
2018-09-27T20:01:20.370Z,66.90
2018-09-27T20:03:49.110Z,67.20
2018-09-27T20:06:17.943Z,67.10
2018-09-27T20:08:46.803Z,67.70
2018-09-27T20:11:15.693Z,67.50
2018-09-27T20:13:44.486Z,67.30
2018-09-27T20:16:14.777Z,67.80
2018-09-27T20:18:52.415Z,68.20
2018-09-27T20:21:21.259Z,68.60
2018-09-27T20:23:49.761Z,68.40
2018-09-27T20:26:18.348Z,68.70
2018-09-27T20:28:46.947Z,69.20
2018-09-27T20:31:15.387Z,69.30
2018-09-27T20:33:43.997Z,69.40
2018-09-27T20:36:15.214Z,69.60
2018-09-27T20:38:43.948Z,69.60
2018-09-27T20:41:12.466Z,69.60
2018-09-27T20:43:41.205Z,69.70
2018-09-27T20:46:09.853Z,69.60
2018-09-27T20:48:38.442Z,70.40
2018-09-27T20:51:07.042Z,70.60
2018-09-27T20:53:35.556Z,69.60
2018-09-27T20:56:04.185Z,69.20
2018-09-27T20:58:32.707Z,69.80
2018-09-27T21:01:01.205Z,69.50
2018-09-27T21:03:29.661Z,68.70
2018-09-27T21:05:58.126Z,68.90
2018-09-27T21:08:26.641Z,69.20
2018-09-27T21:10:55.173Z,68.50
2018-09-27T21:13:23.706Z,68.60
2018-09-27T21:15:52.424Z,69.50
2018-09-27T21:18:20.902Z,68.60
2018-09-27T21:20:49.397Z,68.60
2018-09-27T21:23:17.900Z,69.10
2018-09-27T21:25:46.482Z,68.70
2018-09-27T21:28:15.009Z,68.60
2018-09-27T21:30:43.703Z,69.00
2018-09-27T21:33:12.351Z,68.30
2018-09-27T21:35:40.818Z,68.70
2018-09-27T21:38:09.236Z,68.20
2018-09-27T21:40:37.760Z,67.70
2018-09-27T21:43:06.315Z,68.30
2018-09-27T21:45:34.719Z,67.80
2018-09-27T21:48:03.142Z,67.70
2018-09-27T21:50:31.585Z,68.30
2018-09-27T21:53:00.717Z,66.90
2018-09-27T21:55:29.164Z,68.00
2018-09-27T21:57:57.656Z,67.20
2018-09-27T22:00:26.193Z,68.50
2018-09-27T22:02:54.758Z,67.70
2018-09-27T22:05:23.312Z,67.10
2018-09-27T22:07:51.757Z,67.10
2018-09-27T22:10:20.243Z,66.50
2018-09-27T22:12:48.794Z,66.60
2018-09-27T22:15:17.289Z,66.10
2018-09-27T22:17:45.721Z,66.10
2018-09-27T22:20:14.131Z,66.10
2018-09-27T22:22:42.665Z,66.10
2018-09-27T22:25:11.224Z,66.10
2018-09-27T22:27:40.016Z,67.10
2018-09-27T22:30:14.262Z,69.20
2018-09-27T22:32:42.800Z,71.20
2018-09-27T22:35:11.300Z,72.30
2018-09-27T22:37:39.811Z,72.40
2018-09-27T22:40:08.338Z,72.20
2018-09-27T22:42:36.881Z,72.70
2018-09-27T22:45:05.672Z,73.20
2018-09-27T22:47:34.174Z,73.00
2018-09-27T22:50:02.635Z,72.80
2018-09-27T22:52:31.237Z,73.30
2018-09-27T22:54:59.846Z,73.80
2018-09-27T22:57:28.467Z,73.80
2018-09-27T22:59:57.164Z,74.80
2018-09-27T23:02:25.629Z,74.10
2018-09-27T23:04:54.113Z,74.70
2018-09-27T23:07:22.677Z,75.00
2018-09-27T23:09:51.122Z,75.00
2018-09-27T23:12:19.583Z,75.40
2018-09-27T23:14:48.066Z,75.50
2018-09-27T23:17:16.457Z,76.20
2018-09-27T23:19:44.900Z,75.80
2018-09-27T23:22:13.334Z,76.10
2018-09-27T23:24:41.760Z,76.30
2018-09-27T23:27:10.291Z,76.60
2018-09-27T23:29:38.814Z,76.40
2018-09-27T23:32:07.294Z,76.70
2018-09-27T23:34:35.768Z,76.90
2018-09-27T23:37:04.208Z,76.80
2018-09-27T23:39:32.627Z,77.10
2018-09-27T23:42:01.074Z,77.50
2018-09-27T23:44:29.534Z,77.50
2018-09-27T23:46:58.112Z,77.60
2018-09-27T23:49:26.862Z,78.00
2018-09-27T23:51:55.565Z,78.10
2018-09-27T23:54:23.981Z,78.10
2018-09-27T23:56:52.524Z,78.10
2018-09-27T23:59:21.004Z,78.40
